createdAt,value
2019-05-12T00:01:54.606Z,4.20
2019-05-12T00:05:00.084Z,4.57
2019-05-12T00:08:08.176Z,3.80
2019-05-12T00:11:12.241Z,4.40
2019-05-12T00:14:18.410Z,3.93
2019-05-12T00:17:23.594Z,4.23
2019-05-12T00:20:28.789Z,3.73
2019-05-12T00:23:38.204Z,4.53
2019-05-12T00:26:43.646Z,4.20
2019-05-12T00:29:48.998Z,4.60
2019-05-12T00:32:54.303Z,4.40
2019-05-12T00:35:59.461Z,4.57
2019-05-12T00:39:08.678Z,5.20
2019-05-12T00:42:14.376Z,5.00
2019-05-12T00:45:19.580Z,4.67
2019-05-12T00:48:24.715Z,4.43
2019-05-12T00:51:29.861Z,4.40
2019-05-12T00:54:35.030Z,4.17
2019-05-12T00:57:40.149Z,4.13
2019-05-12T01:00:45.389Z,4.40
2019-05-12T01:03:50.828Z,4.27
2019-05-12T01:06:58.209Z,4.17
2019-05-12T01:10:04.755Z,4.20
2019-05-12T01:13:10.323Z,4.00
2019-05-12T01:16:15.866Z,4.37
2019-05-12T01:19:21.163Z,4.50
2019-05-12T01:22:27.740Z,3.90
2019-05-12T01:25:33.071Z,4.27
2019-05-12T01:28:38.360Z,4.93
2019-05-12T01:31:55.799Z,4.37
2019-05-12T01:35:00.981Z,4.07
2019-05-12T01:38:07.984Z,3.90
2019-05-12T01:41:13.724Z,3.90
2019-05-12T01:44:19.195Z,4.47
2019-05-12T01:47:24.455Z,3.97
2019-05-12T01:50:29.796Z,3.90
2019-05-12T01:53:37.875Z,4.37
2019-05-12T01:56:42.908Z,4.33
2019-05-12T01:59:48.455Z,4.70
2019-05-12T02:02:53.651Z,4.60
2019-05-12T02:06:01.634Z,4.40
2019-05-12T02:09:10.210Z,4.40
2019-05-12T02:12:15.388Z,4.40
2019-05-12T02:15:21.247Z,4.80
2019-05-12T02:18:28.161Z,4.80
2019-05-12T02:21:33.361Z,4.70
2019-05-12T02:24:39.064Z,4.20
2019-05-12T02:27:44.395Z,4.07
2019-05-12T02:30:50.633Z,4.63
2019-05-12T02:33:55.795Z,4.67
2019-05-12T02:37:00.975Z,4.80
2019-05-12T02:40:07.830Z,4.03
2019-05-12T02:43:15.412Z,4.60
2019-05-12T02:46:19.814Z,4.10
2019-05-12T02:49:24.984Z,5.07
2019-05-12T02:52:30.220Z,4.50
2019-05-12T02:55:35.931Z,4.20
2019-05-12T02:58:45.171Z,4.40
2019-05-12T03:01:49.961Z,4.87
2019-05-12T03:04:55.957Z,4.80
2019-05-12T03:08:04.898Z,4.17
2019-05-12T03:11:09.249Z,4.17
2019-05-12T03:14:15.661Z,4.00
2019-05-12T03:17:24.904Z,4.40
2019-05-12T03:20:28.039Z,4.40
2019-05-12T03:23:35.462Z,4.20
2019-05-12T03:26:40.716Z,4.90
2019-05-12T03:29:45.865Z,4.60
2019-05-12T03:32:51.072Z,5.77
2019-05-12T03:36:00.680Z,4.30
2019-05-12T03:39:04.391Z,3.90
2019-05-12T03:42:09.531Z,5.30
2019-05-12T03:45:15.837Z,5.23
2019-05-12T03:48:21.000Z,4.67
2019-05-12T03:51:26.132Z,5.20
2019-05-12T03:54:31.284Z,5.00
2019-05-12T03:57:38.060Z,4.13
2019-05-12T04:00:44.739Z,4.50
2019-05-12T04:03:50.048Z,5.03
2019-05-12T04:06:55.327Z,4.00
2019-05-12T04:10:04.842Z,4.40
2019-05-12T04:13:08.475Z,4.90
2019-05-12T04:16:16.342Z,4.70
2019-05-12T04:19:20.479Z,4.20
2019-05-12T04:22:25.670Z,4.50
2019-05-12T04:25:46.525Z,4.30
2019-05-12T04:28:37.621Z,4.47
2019-05-12T04:31:44.223Z,4.73
2019-05-12T04:34:49.599Z,4.37
2019-05-12T04:37:55.525Z,4.13
2019-05-12T04:41:01.876Z,4.23
2019-05-12T04:44:07.034Z,4.40
2019-05-12T04:47:14.544Z,4.10
2019-05-12T04:50:20.091Z,4.00
2019-05-12T04:53:25.568Z,4.60
2019-05-12T04:56:35.855Z,4.30
2019-05-12T04:59:40.033Z,3.60
2019-05-12T05:02:45.753Z,4.10
2019-05-12T05:05:51.215Z,4.43
2019-05-12T05:08:56.411Z,4.30
2019-05-12T05:12:04.421Z,4.00
2019-05-12T05:15:08.929Z,4.30
2019-05-12T05:18:14.056Z,4.40
2019-05-12T05:21:19.230Z,4.17
2019-05-12T05:24:24.479Z,4.27
2019-05-12T05:27:29.645Z,4.00
2019-05-12T05:30:34.828Z,3.70
2019-05-12T05:33:39.994Z,3.63
2019-05-12T05:36:45.104Z,4.10
2019-05-12T05:39:51.322Z,4.10
2019-05-12T05:42:57.754Z,4.17
2019-05-12T05:46:07.713Z,4.10
2019-05-12T05:49:09.695Z,4.07
2019-05-12T05:52:15.165Z,3.60
2019-05-12T05:55:20.576Z,3.53
2019-05-12T05:58:26.341Z,4.00
2019-05-12T06:01:31.519Z,3.60
2019-05-12T06:04:39.030Z,3.43
2019-05-12T06:07:44.305Z,3.97
2019-05-12T06:10:49.666Z,3.67
2019-05-12T06:13:54.766Z,3.47
2019-05-12T06:16:59.995Z,3.13
2019-05-12T06:20:05.372Z,3.50
2019-05-12T06:23:10.609Z,3.30
2019-05-12T06:26:21.283Z,3.30
2019-05-12T06:29:24.923Z,3.20
2019-05-12T06:32:29.526Z,3.53
2019-05-12T06:35:40.635Z,3.43
2019-05-12T06:38:43.465Z,2.93
2019-05-12T06:41:48.802Z,3.50
2019-05-12T06:44:57.027Z,3.53
2019-05-12T06:48:03.237Z,3.57
2019-05-12T06:51:09.211Z,3.23
2019-05-12T06:54:15.225Z,4.10
2019-05-12T06:57:25.347Z,3.70
2019-05-12T07:00:30.919Z,3.80
2019-05-12T07:03:37.148Z,3.40
2019-05-12T07:06:41.065Z,3.60
2019-05-12T07:09:53.772Z,4.17
2019-05-12T07:13:01.678Z,3.90
2019-05-12T07:16:19.227Z,3.73
2019-05-12T07:19:22.644Z,3.67
2019-05-12T07:22:31.844Z,4.40
2019-05-12T07:25:36.868Z,3.83
2019-05-12T07:28:43.240Z,4.40
2019-05-12T07:31:48.032Z,3.47
2019-05-12T07:34:54.416Z,3.37
2019-05-12T07:37:59.776Z,3.03
2019-05-12T07:41:06.800Z,4.67
2019-05-12T07:44:14.362Z,4.43
2019-05-12T07:47:25.293Z,3.50
2019-05-12T07:50:27.885Z,4.00
2019-05-12T07:53:33.867Z,3.70
2019-05-12T07:56:41.037Z,3.80
2019-05-12T07:59:45.979Z,3.10
2019-05-12T08:02:51.146Z,3.00
2019-05-12T08:06:00.029Z,3.10
2019-05-12T08:09:05.832Z,3.13
2019-05-12T08:12:19.084Z,3.50
2019-05-12T08:15:17.895Z,4.13
2019-05-12T08:18:24.629Z,3.23
2019-05-12T08:21:34.794Z,3.13
2019-05-12T08:24:42.833Z,2.80
2019-05-12T08:27:45.239Z,2.70
2019-05-12T08:30:52.155Z,2.87
2019-05-12T08:33:57.902Z,3.30
2019-05-12T08:37:04.365Z,3.17
2019-05-12T08:40:09.755Z,3.30
2019-05-12T08:43:15.099Z,3.50
2019-05-12T08:46:20.276Z,3.57
2019-05-12T08:49:25.455Z,3.10
2019-05-12T08:52:36.314Z,3.50
2019-05-12T08:55:37.670Z,3.63
2019-05-12T08:58:48.253Z,3.40
2019-05-12T09:01:49.792Z,3.43
2019-05-12T09:04:55.721Z,2.90
2019-05-12T09:08:03.640Z,3.10
2019-05-12T09:11:09.617Z,3.33
2019-05-12T09:14:14.803Z,3.13
2019-05-12T09:17:19.935Z,3.43
2019-05-12T09:20:25.088Z,3.10
2019-05-12T09:23:32.785Z,3.23
2019-05-12T09:26:37.118Z,3.23
2019-05-12T09:29:43.589Z,3.13
2019-05-12T09:32:50.408Z,2.83
2019-05-12T09:35:55.911Z,2.83
2019-05-12T09:39:02.075Z,2.50
2019-05-12T09:42:07.962Z,2.73
2019-05-12T09:45:13.772Z,3.03
2019-05-12T09:48:19.235Z,2.63
2019-05-12T09:51:24.407Z,2.40
2019-05-12T09:54:40.296Z,2.40
2019-05-12T09:57:40.577Z,2.50
2019-05-12T10:00:43.623Z,2.60
2019-05-12T10:03:49.063Z,3.17
2019-05-12T10:06:54.322Z,2.50
2019-05-12T10:10:00.556Z,2.53
2019-05-12T10:13:05.760Z,2.40
2019-05-12T10:16:13.296Z,2.63
2019-05-12T10:19:17.816Z,2.70
2019-05-12T10:22:24.628Z,2.60
2019-05-12T10:25:30.744Z,3.30
2019-05-12T10:28:36.121Z,2.80
2019-05-12T10:31:41.278Z,2.90
2019-05-12T10:34:46.457Z,2.33
2019-05-12T10:37:53.649Z,2.30
2019-05-12T10:40:58.527Z,2.60
2019-05-12T10:44:04.104Z,2.50
2019-05-12T10:47:09.359Z,2.40
2019-05-12T10:50:14.861Z,3.10
2019-05-12T10:53:19.998Z,2.03
2019-05-12T10:56:25.167Z,2.20
2019-05-12T10:59:33.387Z,2.43
2019-05-12T11:02:37.371Z,2.80
2019-05-12T11:05:44.054Z,2.43
2019-05-12T11:08:51.204Z,2.77
2019-05-12T11:11:57.823Z,2.30
2019-05-12T11:15:06.715Z,2.90
2019-05-12T11:18:20.513Z,2.60
2019-05-12T11:21:23.226Z,2.33
2019-05-12T11:24:28.364Z,2.03
2019-05-12T11:27:34.559Z,2.37
2019-05-12T11:30:39.813Z,2.30
2019-05-12T11:33:44.958Z,2.17
2019-05-12T11:36:50.492Z,2.57
2019-05-12T11:39:55.623Z,2.87
2019-05-12T11:43:01.756Z,2.40
2019-05-12T11:46:08.419Z,2.40
2019-05-12T11:49:14.607Z,2.40
2019-05-12T11:52:19.768Z,2.50
2019-05-12T11:55:29.785Z,2.43
2019-05-12T11:58:33.500Z,2.40
2019-05-12T12:01:39.676Z,2.60
2019-05-12T12:04:46.034Z,2.83
2019-05-12T12:07:52.940Z,2.60
2019-05-12T12:10:58.106Z,2.53
2019-05-12T12:14:06.374Z,2.37
2019-05-12T12:17:10.164Z,2.50
2019-05-12T12:20:22.246Z,2.60
2019-05-12T12:23:24.358Z,2.30
2019-05-12T12:26:30.612Z,2.20
2019-05-12T12:29:39.108Z,3.47
2019-05-12T12:32:44.415Z,2.20
2019-05-12T12:35:50.498Z,2.50
2019-05-12T12:38:56.462Z,2.10
2019-05-12T12:42:01.688Z,2.57
2019-05-12T12:45:44.385Z,2.60
2019-05-12T12:48:49.534Z,2.33
2019-05-12T12:51:54.698Z,2.80
2019-05-12T12:55:08.309Z,2.47
2019-05-12T12:58:13.954Z,2.57
2019-05-12T13:01:26.737Z,2.37
2019-05-12T13:04:28.520Z,2.30
2019-05-12T13:07:33.728Z,2.77
2019-05-12T13:10:40.550Z,2.53
2019-05-12T13:13:45.825Z,2.80
2019-05-12T13:16:54.704Z,2.30
2019-05-12T13:19:58.863Z,2.93
2019-05-12T13:23:04.285Z,2.20
2019-05-12T13:26:09.527Z,2.70
2019-05-12T13:29:14.758Z,2.57
2019-05-12T13:32:23.626Z,2.53
2019-05-12T13:35:26.840Z,2.30
2019-05-12T13:38:38.294Z,2.33
2019-05-12T13:41:39.082Z,2.40
2019-05-12T13:44:44.298Z,2.50
2019-05-12T13:47:49.490Z,2.50
2019-05-12T13:51:07.719Z,2.40
2019-05-12T13:54:03.733Z,2.40
2019-05-12T13:57:11.782Z,2.03
2019-05-12T14:00:15.733Z,3.10
2019-05-12T14:03:20.995Z,2.20
2019-05-12T14:06:32.207Z,2.80
2019-05-12T14:09:35.755Z,2.50
2019-05-12T14:12:43.954Z,2.30
2019-05-12T14:15:49.693Z,2.20
2019-05-12T14:18:57.121Z,2.60
2019-05-12T14:22:03.540Z,3.00
2019-05-12T14:25:09.368Z,2.97
2019-05-12T14:28:16.725Z,2.30
2019-05-12T14:31:27.498Z,2.60
2019-05-12T14:34:28.530Z,2.40
2019-05-12T14:37:33.795Z,2.57
2019-05-12T14:40:38.974Z,2.77
2019-05-12T14:43:47.642Z,2.90
2019-05-12T14:46:53.786Z,2.40
2019-05-12T14:49:59.273Z,2.90
2019-05-12T14:53:04.448Z,2.70
2019-05-12T14:56:09.663Z,2.50
2019-05-12T14:59:17.017Z,2.73
2019-05-12T15:02:27.703Z,2.53
2019-05-12T15:05:29.209Z,2.30
2019-05-12T15:08:37.177Z,2.70
2019-05-12T15:11:43.563Z,2.50
2019-05-12T15:14:48.120Z,2.50
2019-05-12T15:17:56.678Z,2.37
2019-05-12T15:21:03.428Z,2.37
2019-05-12T15:24:09.298Z,2.70
2019-05-12T15:27:15.064Z,2.30
2019-05-12T15:30:24.482Z,2.77
2019-05-12T15:33:28.035Z,3.10
2019-05-12T15:36:33.649Z,2.57
2019-05-12T15:39:38.887Z,2.47
2019-05-12T15:42:45.246Z,2.30
2019-05-12T15:45:55.305Z,2.50
2019-05-12T15:48:57.639Z,2.33
2019-05-12T15:52:03.512Z,2.73
2019-05-12T15:55:09.545Z,2.43
2019-05-12T15:58:14.772Z,2.47
2019-05-12T16:01:20.098Z,2.50
2019-05-12T16:04:26.418Z,2.63
2019-05-12T16:07:37.840Z,2.30
2019-05-12T16:10:40.773Z,2.40
2019-05-12T16:13:53.717Z,2.37
2019-05-12T16:16:53.548Z,2.33
2019-05-12T16:19:58.993Z,2.80
2019-05-12T16:23:04.269Z,2.30
2019-05-12T16:26:12.562Z,2.20
2019-05-12T16:29:16.360Z,2.20
2019-05-12T16:32:27.076Z,2.20
2019-05-12T16:35:31.743Z,2.40
2019-05-12T16:38:36.205Z,2.60
2019-05-12T16:41:43.739Z,2.70
2019-05-12T16:44:48.294Z,2.47
2019-05-12T16:47:59.354Z,2.37
2019-05-12T16:51:03.288Z,2.47
2019-05-12T16:54:08.214Z,2.23
2019-05-12T16:57:17.948Z,2.90
2019-05-12T17:00:20.827Z,3.27
2019-05-12T17:03:27.206Z,2.20
2019-05-12T17:06:35.012Z,2.70
2019-05-12T17:09:39.564Z,2.60
2019-05-12T17:12:48.112Z,2.30
2019-05-12T17:15:59.841Z,2.53
2019-05-12T17:19:06.250Z,2.50
2019-05-12T17:22:08.525Z,2.10
2019-05-12T17:25:15.481Z,2.10
2019-05-12T17:28:21.036Z,2.40
2019-05-12T17:31:27.580Z,2.37
2019-05-12T17:34:33.955Z,2.57
2019-05-12T17:37:41.403Z,2.37
2019-05-12T17:40:50.230Z,2.37
2019-05-12T17:44:00.891Z,2.40
2019-05-12T17:47:00.211Z,2.10
2019-05-12T17:50:10.294Z,2.30
2019-05-12T17:53:17.696Z,2.60
2019-05-12T17:56:25.076Z,2.13
2019-05-12T17:59:29.482Z,2.30
2019-05-12T18:02:34.860Z,2.00
2019-05-12T18:05:42.467Z,2.40
2019-05-12T18:08:46.867Z,2.13
2019-05-12T18:11:56.127Z,2.10
2019-05-12T18:14:58.947Z,2.30
2019-05-12T18:18:05.647Z,2.17
2019-05-12T18:21:14.832Z,2.10
2019-05-12T18:24:17.856Z,2.20
2019-05-12T18:27:23.010Z,2.50
2019-05-12T18:30:28.303Z,2.07
2019-05-12T18:33:37.180Z,2.67
2019-05-12T18:36:40.443Z,2.33
2019-05-12T18:39:45.627Z,2.50
2019-05-12T18:42:50.770Z,1.90
2019-05-12T18:46:04.837Z,2.30
2019-05-12T18:49:11.965Z,2.33
2019-05-12T18:52:11.447Z,2.30
2019-05-12T18:55:17.727Z,2.60
2019-05-12T18:58:30.613Z,2.40
2019-05-12T19:01:33.416Z,2.20
2019-05-12T19:04:39.718Z,3.00
2019-05-12T19:07:45.185Z,1.80
2019-05-12T19:10:51.936Z,2.50
2019-05-12T19:13:58.936Z,2.10
2019-05-12T19:17:04.315Z,2.03
2019-05-12T19:20:09.779Z,2.37
2019-05-12T19:23:15.322Z,2.50
2019-05-12T19:26:20.579Z,2.53
2019-05-12T19:29:29.768Z,2.57
2019-05-12T19:32:33.616Z,2.50
2019-05-12T19:35:39.651Z,2.03
2019-05-12T19:38:44.851Z,2.40
2019-05-12T19:41:50.101Z,2.27
2019-05-12T19:44:59.319Z,1.90
2019-05-12T19:48:04.070Z,2.47
2019-05-12T19:51:20.868Z,2.20
2019-05-12T19:54:19.350Z,2.20
2019-05-12T19:57:26.117Z,2.53
2019-05-12T20:00:29.705Z,2.13
2019-05-12T20:03:34.927Z,2.33
2019-05-12T20:06:43.981Z,2.23
2019-05-12T20:09:55.897Z,2.00
2019-05-12T20:12:57.149Z,2.40
2019-05-12T20:16:02.405Z,1.80
2019-05-12T20:19:08.442Z,2.60
2019-05-12T20:22:13.910Z,2.03
2019-05-12T20:25:19.194Z,2.07
2019-05-12T20:28:24.541Z,2.53
2019-05-12T20:31:29.897Z,2.80
2019-05-12T20:34:48.430Z,2.20
2019-05-12T20:37:52.735Z,2.43
2019-05-12T20:40:50.465Z,2.23
2019-05-12T20:43:55.666Z,2.40
2019-05-12T20:47:06.414Z,2.33
2019-05-12T20:50:10.699Z,3.90
2019-05-12T20:53:16.102Z,2.00
2019-05-12T20:56:24.375Z,2.53
2019-05-12T20:59:28.479Z,2.73
2019-05-12T21:02:33.886Z,2.70
2019-05-12T21:05:40.260Z,2.80
2019-05-12T21:08:53.120Z,2.83
2019-05-12T21:11:54.763Z,2.43
2019-05-12T21:15:13.711Z,2.33
2019-05-12T21:18:11.171Z,2.43
2019-05-12T21:21:16.462Z,3.10
2019-05-12T21:24:24.295Z,2.53
2019-05-12T21:27:28.738Z,2.63
2019-05-12T21:30:34.015Z,2.20
2019-05-12T21:33:41.594Z,2.73
2019-05-12T21:36:46.135Z,2.53
2019-05-12T21:39:51.262Z,3.10
2019-05-12T21:42:56.382Z,2.23
2019-05-12T21:46:10.171Z,2.97
2019-05-12T21:49:11.893Z,2.60
2019-05-12T21:52:15.306Z,2.60
2019-05-12T21:55:24.057Z,2.40
2019-05-12T21:58:29.646Z,2.43
2019-05-12T22:01:43.480Z,2.47
2019-05-12T22:04:45.018Z,2.40
2019-05-12T22:07:49.261Z,2.60
2019-05-12T22:10:54.632Z,2.30
2019-05-12T22:14:00.368Z,2.33
2019-05-12T22:17:07.321Z,2.93
2019-05-12T22:20:15.455Z,2.97
2019-05-12T22:23:19.410Z,2.60
2019-05-12T22:26:24.565Z,2.20
2019-05-12T22:29:31.384Z,3.03
2019-05-12T22:32:36.560Z,2.70
2019-05-12T22:35:44.130Z,2.77
2019-05-12T22:38:52.042Z,2.73
2019-05-12T22:41:55.528Z,2.60
2019-05-12T22:45:01.842Z,3.17
2019-05-12T22:48:07.582Z,2.60
2019-05-12T22:51:18.716Z,2.73
2019-05-12T22:54:19.726Z,2.73
2019-05-12T22:57:29.177Z,2.77
2019-05-12T23:00:34.203Z,2.80
2019-05-12T23:03:43.200Z,2.90
2019-05-12T23:06:46.837Z,2.40
2019-05-12T23:09:54.458Z,2.93
2019-05-12T23:13:01.934Z,3.20
2019-05-12T23:16:06.432Z,3.03
2019-05-12T23:19:12.389Z,2.80
2019-05-12T23:22:18.457Z,3.03
2019-05-12T23:25:24.433Z,2.87
2019-05-12T23:28:29.831Z,2.80
2019-05-12T23:31:35.048Z,2.70
2019-05-12T23:34:45.003Z,2.67
2019-05-12T23:37:47.068Z,2.73
2019-05-12T23:40:53.759Z,2.80
2019-05-12T23:44:00.746Z,3.00
2019-05-12T23:47:05.881Z,2.70
2019-05-12T23:50:13.896Z,2.80
2019-05-12T23:53:18.052Z,2.70
2019-05-12T23:56:23.314Z,2.93
2019-05-12T23:59:28.461Z,3.00
